San Simeon, California
Current Conditions -  °F | °C
As of 11:53 PM on Saturday 25 Oct 2014 (Local Time) from KPRB Reporting Station
Clear Clear  
Wind Chill: 57°   Ceiling: Unl
Heat Index: 57°   Visibility: 10mi
Dew Point: 49°   Wind: 6mph
Humidity: 74%   Direction: 320°NW
Pressure: 30.12"   Gusts: NA
Location:  35.65°N, 121.19°W
Report Text: KPRB 260653Z AUTO 32005KT 10SM CLR 14/09 A3012 RMK AO2 SLP194 T01390094 TSNO
Loading
Personal Weather Stations






























Interactive Weather Map
Tropical Storm Tracking
New forecast layout! Learn more

10-Day Weather Forecast

Advertisements
Track Severe Weather on mobile